sensor_id;sensor_type;location;lat;lon;timestamp;pressure;altitude;pressure_sealevel;temperature;humidity
55014;BME280;40916;51.632;5.552;2022-10-15T00:00:39;1003.4012092310024;;;10.522347086571319;0
55014;BME280;40916;51.632;5.552;2022-10-15T00:01:39;1003.4086249669773;;;10.501896945975464;0
55014;BME280;40916;51.632;5.552;2022-10-15T00:02:39;1003.4233416508845;;;10.501896945975464;0
55014;BME280;40916;51.632;5.552;2022-10-15T00:03:40;1003.3387653532952;;;10.481442911498874;0
55014;BME280;40916;51.632;5.552;2022-10-15T00:04:39;1003.4588721563656;;;10.515530805465392;0
55014;BME280;40916;51.632;5.552;2022-10-15T00:05:40;1003.363264773078;;;10.495079367318652;0
55014;BME280;40916;51.632;5.552;2022-10-15T00:06:40;1003.4159833086924;;;10.501896945975464;0
55014;BME280;40916;51.632;5.552;2022-10-15T00:07:40;1003.4405262066679;;;10.495079367318652;0
55014;BME280;40916;51.632;5.552;2022-10-15T00:08:40;1003.3301527462078;;;10.495079367318652;0
55014;BME280;40916;51.632;5.552;2022-10-15T00:09:40;1003.4025225919737;;;10.488261355871973;0
55014;BME280;40916;51.632;5.552;2022-10-15T00:10:40;1003.4148084176214;;;10.47462403406275;0
55014;BME280;40916;51.632;5.552;2022-10-15T00:11:40;1003.4418019631939;;;10.460984979454707;0
55014;BME280;40916;51.632;5.552;2022-10-15T00:12:40;1003.3952122944767;;;10.447344190953846;0
55014;BME280;40916;51.632;5.552;2022-10-15T00:13:40;1003.4209634293424;;;10.447344190953846;0
55014;BME280;40916;51.632;5.552;2022-10-15T00:14:40;1003.473689488484;;;10.454164802009291;0
55014;BME280;40916;51.632;5.552;2022-10-15T00:15:40;1003.4589743280961;;;10.454164802009291;0
55014;BME280;40916;51.632;5.552;2022-10-15T00:16:41;1003.4614295102191;;;10.447344190953846;0
55014;BME280;40916;51.632;5.552;2022-10-15T00:17:41;1003.4185076468654;;;10.454164802009291;0
55014;BME280;40916;51.632;5.552;2022-10-15T00:18:41;1003.3633329702849;;;10.433701667465233;0
55014;BME280;40916;51.632;5.552;2022-10-15T00:19:41;1003.3694611654523;;;10.447344190953846;0
55014;BME280;40916;51.632;5.552;2022-10-15T00:20:41;1003.4577374453253;;;10.467804723426934;0
55014;BME280;40916;51.632;5.552;2022-10-15T00:21:41;1003.3829404751575;;;10.460984979454707;0
55014;BME280;40916;51.632;5.552;2022-10-15T00:22:41;1003.3535097425845;;;10.460984979454707;0
55014;BME280;40916;51.632;5.552;2022-10-15T00:23:41;1003.4295242280944;;;10.47462403406275;0
55014;BME280;40916;51.632;5.552;2022-10-15T00:24:41;1003.3829404751575;;;10.460984979454707;0
55014;BME280;40916;51.632;5.552;2022-10-15T00:25:41;1003.4135906644296;;;10.467804723426934;0
55014;BME280;40916;51.632;5.552;2022-10-15T00:26:41;1003.4332031810106;;;10.47462403406275;0
55014;BME280;40916;51.632;5.552;2022-10-15T00:27:42;1003.4258452752973;;;10.47462403406275;0
55014;BME280;40916;51.632;5.552;2022-10-15T00:28:42;1003.4699927167311;;;10.47462403406275;0
55014;BME280;40916;51.632;5.552;2022-10-15T00:29:42;1003.4552769010122;;;10.47462403406275;0
55014;BME280;40916;51.632;5.552;2022-10-15T00:30:42;1003.517819130992;;;10.47462403406275;0
55014;BME280;40916;51.632;5.552;2022-10-15T00:31:42;1003.4000926090562;;;10.47462403406275;0
55014;BME280;40916;51.632;5.552;2022-10-15T00:32:42;1003.5410751908247;;;10.501896945975464;0
55014;BME280;40916;51.632;5.552;2022-10-15T00:33:42;1003.4196624797288;;;10.501896945975464;0
55014;BME280;40916;51.632;5.552;2022-10-15T00:34:42;1003.4416819164397;;;10.522347086571319;0
55014;BME280;40916;51.632;5.552;2022-10-15T00:35:42;1003.4686421259264;;;10.529162935433003;0
55014;BME280;40916;51.632;5.552;2022-10-15T00:36:42;1003.4465657809224;;;10.529162935433003;0
55014;BME280;40916;51.632;5.552;2022-10-15T00:37:42;1003.4968032693595;;;10.542793336968629;0
55014;BME280;40916;51.632;5.552;2022-10-15T00:38:43;1003.4085679000087;;;10.522347086571319;0
55014;BME280;40916;51.632;5.552;2022-10-15T00:39:43;1003.4809478482757;;;10.515530805465392;0
55014;BME280;40916;51.632;5.552;2022-10-15T00:40:43;1003.4944562988047;;;10.508714091978899;0
55014;BME280;40916;51.632;5.552;2022-10-15T00:41:43;1003.505436043807;;;10.529162935433003;0
55014;BME280;40916;51.632;5.552;2022-10-15T00:42:43;1003.4711166058208;;;10.522347086571319;0
55014;BME280;40916;51.632;5.552;2022-10-15T00:43:44;1003.4918426845362;;;10.556422011161679;0
55014;BME280;40916;51.632;5.552;2022-10-15T00:44:46;1003.4205316196264;;;10.59048614666158;0
55014;BME280;40916;51.632;5.552;2022-10-15T00:45:43;1003.4706119910743;;;10.624539510053836;0
55014;BME280;40916;51.632;5.552;2022-10-15T00:46:43;1003.4789994354315;;;10.651774456239849;0
55014;BME280;40916;51.632;5.552;2022-10-15T00:47:45;1003.4579156187131;;;10.679002527784434;0
55014;BME280;40916;51.632;5.552;2022-10-15T00:48:45;1003.5274589682708;;;10.71983176405794;0
55014;BME280;40916;51.632;5.552;2022-10-15T00:49:45;1003.5380529719259;;;10.760645580957835;0
55014;BME280;40916;51.632;5.552;2022-10-15T00:50:44;1003.5009913170405;;;10.78104671622247;0
55014;BME280;40916;51.632;5.552;2022-10-15T00:51:46;1003.4868500434;;;10.82863442270757;0
55014;BME280;40916;51.632;5.552;2022-10-15T00:52:45;1003.4729443954893;;;10.855818019184543;0
55014;BME280;40916;51.632;5.552;2022-10-15T00:53:44;1003.4796491786695;;;10.896580647541473;0
55014;BME280;40916;51.632;5.552;2022-10-15T00:54:47;1003.5010244724322;;;10.937327981866428;0
55014;BME280;40916;51.632;5.552;2022-10-15T00:55:44;1003.5212486249424;;;10.971272431593626;0
55014;BME280;40916;51.632;5.552;2022-10-15T00:56:44;1003.4666829703854;;;10.998420369875312;0
55014;BME280;40916;51.632;5.552;2022-10-15T00:57:45;1003.4499966159887;;;11.032345779761023;0
55014;BME280;40916;51.632;5.552;2022-10-15T00:58:45;1003.4311226739295;;;11.05269595845736;0
55014;BME280;40916;51.632;5.552;2022-10-15T00:59:46;1003.4775535565211;;;11.113723732362029;0
55014;BME280;40916;51.632;5.552;2022-10-15T01:00:45;1003.49756346547;;;11.14761332403845;0
55014;BME280;40916;51.632;5.552;2022-10-15T01:01:45;1003.4827685781885;;;11.195041118398855;0
55014;BME280;40916;51.632;5.552;2022-10-15T01:02:45;1003.3964065279175;;;11.208588143577916;0
55014;BME280;40916;51.632;5.552;2022-10-15T01:03:45;1003.3636790235939;;;11.235677169788861;0
55014;BME280;40916;51.632;5.552;2022-10-15T01:04:45;1003.4066645445635;;;11.27629816439632;0
55014;BME280;40916;51.632;5.552;2022-10-15T01:05:45;1003.4485882092265;;;11.310137511830256;0
55014;BME280;40916;51.632;5.552;2022-10-15T01:06:45;1003.4221238596684;;;11.330436117503712;0
55014;BME280;40916;51.632;5.552;2022-10-15T01:07:45;1003.4234396288053;;;11.364258800227315;0
55014;BME280;40916;51.632;5.552;2022-10-15T01:08:46;1003.5232551848342;;;11.391309461673611;0
55014;BME280;40916;51.632;5.552;2022-10-15T01:09:46;1003.3731047960887;;;11.39807108856698;0
55014;BME280;40916;51.632;5.552;2022-10-15T01:10:47;1003.4674786680034;;;11.438632136738306;0
55014;BME280;40916;51.632;5.552;2022-10-15T01:11:46;1003.424215654885;;;11.445390860439222;0
55014;BME280;40916;51.632;5.552;2022-10-15T01:12:51;1003.4750670005068;;;11.465664546699895;0
55014;BME280;40916;51.632;5.552;2022-10-15T01:13:48;1003.4106418754984;;;11.47917826812537;0
55014;BME280;40916;51.632;5.552;2022-10-15T01:14:48;1003.3425192250547;;;11.492690335218843;0
55014;BME280;40916;51.632;5.552;2022-10-15T01:15:47;1003.394295743487;;;11.519709510519334;0
55014;BME280;40916;51.632;5.552;2022-10-15T01:16:49;1003.3391129051571;;;11.546722080811943;0
55014;BME280;40916;51.632;5.552;2022-10-15T01:17:47;1003.4323518113955;;;11.580478517871668;0
55014;BME280;40916;51.632;5.552;2022-10-15T01:18:47;1003.370600650645;;;11.58722856978827;0
55014;BME280;40916;51.632;5.552;2022-10-15T01:19:57;1003.3226583387262;;;11.58722856978827;0
55014;BME280;40916;51.632;5.552;2022-10-15T01:20:49;1003.3051581287253;;;11.593978210171134;0
55014;BME280;40916;51.632;5.552;2022-10-15T01:21:48;1003.2618399168633;;;11.600727439147892;0
55014;BME280;40916;51.632;5.552;2022-10-15T01:22:51;1003.2388237374212;;;11.620972658917008;0
55014;BME280;40916;51.632;5.552;2022-10-15T01:24:04;1003.2858683288752;;;11.641214180620704;0
55014;BME280;40916;51.632;5.552;2022-10-15T01:24:55;1003.1217316294791;;;11.627720243544559;0
55014;BME280;40916;51.632;5.552;2022-10-15T01:25:48;1003.2729645084079;;;11.654706475640054;0
55014;BME280;40916;51.632;5.552;2022-10-15T01:26:53;1003.2259367486054;;;11.661452007696411;0
55014;BME280;40916;51.632;5.552;2022-10-15T01:27:49;1003.1945778388862;;;11.674941841538008;0
55014;BME280;40916;51.632;5.552;2022-10-15T01:28:50;1003.1954940194825;;;11.681686143577291;0
55014;BME280;40916;51.632;5.552;2022-10-15T01:29:51;1003.1383018215505;;;11.695173518527554;0
55014;BME280;40916;51.632;5.552;2022-10-15T01:30:49;1003.1788232950773;;;11.722143355465985;0
55014;BME280;40916;51.632;5.552;2022-10-15T01:31:49;1003.1474291504937;;;11.735625819481498;0
55014;BME280;40916;51.632;5.552;2022-10-15T01:32:52;1003.118894918464;;;11.71540151003477;0
55014;BME280;40916;51.632;5.552;2022-10-15T01:33:49;1003.1344723847725;;;11.749106648544704;0
55014;BME280;40916;51.632;5.552;2022-10-15T01:34:49;1003.1123374166752;;;11.749106648544704;0
55014;BME280;40916;51.632;5.552;2022-10-15T01:35:49;1003.0902024528942;;;11.749106648544704;0
55014;BME280;40916;51.632;5.552;2022-10-15T01:36:50;1003.055101438214;;;11.762585843667186;0
55014;BME280;40916;51.632;5.552;2022-10-15T01:37:49;1003.05879070553;;;11.762585843667186;0
55014;BME280;40916;51.632;5.552;2022-10-15T01:38:50;1002.9867874248139;;;11.776063405859688;0
55014;BME280;40916;51.632;5.552;2022-10-15T01:39:49;1003.0799117340434;;;11.782801574922829;0
55014;BME280;40916;51.632;5.552;2022-10-15T01:40:49;1003.0688434438943;;;11.782801574922829;0
55014;BME280;40916;51.632;5.552;2022-10-15T01:41:50;1003.0614645843942;;;11.782801574922829;0
55014;BME280;40916;51.632;5.552;2022-10-15T01:42:50;1003.0512841865363;;;11.789539336132123;0
55014;BME280;40916;51.632;5.552;2022-10-15T01:43:50;1003.0291472886013;;;11.789539336132123;0
55014;BME280;40916;51.632;5.552;2022-10-15T01:44:50;1003.119467775824;;;11.80301363549357;0
55014;BME280;40916;51.632;5.552;2022-10-15T01:45:51;1003.0990959616606;;;11.816486304952278;0
55014;BME280;40916;51.632;5.552;2022-10-15T01:46:49;1003.1231573695394;;;11.80301363549357;0
55014;BME280;40916;51.632;5.552;2022-10-15T01:47:50;1003.0899510304178;;;11.80301363549357;0
55014;BME280;40916;51.632;5.552;2022-10-15T01:48:50;1003.1609379144751;;;11.809750173897783;0
55014;BME280;40916;51.632;5.552;2022-10-15T01:49:50;1003.162702261873;;;11.823222028782954;0
55014;BME280;40916;51.632;5.552;2022-10-15T01:50:50;1003.111924663301;;;11.829957345515663;0
55014;BME280;40916;51.632;5.552;2022-10-15T01:51:50;1003.1764064097085;;;11.843426758190308;0
55014;BME280;40916;51.632;5.552;2022-10-15T01:52:50;1003.1293118192364;;;11.850160854383688;0
55014;BME280;40916;51.632;5.552;2022-10-15T01:53:50;1003.1321273818706;;;11.843426758190308;0
55014;BME280;40916;51.632;5.552;2022-10-15T01:54:50;1003.2159275606425;;;11.863627827110765;0
55014;BME280;40916;51.632;5.552;2022-10-15T01:55:50;1003.0711441540361;;;11.856894543981976;0
55014;BME280;40916;51.632;5.552;2022-10-15T01:56:50;1003.1594910616094;;;11.883825238935263;0
55014;BME280;40916;51.632;5.552;2022-10-15T01:57:50;1003.084820644711;;;11.877093174461947;0
55014;BME280;40916;51.632;5.552;2022-10-15T01:58:50;1003.0911028789391;;;11.897288150104256;0
55014;BME280;40916;51.632;5.552;2022-10-15T01:59:50;1003.1149655868326;;;11.910749438405027;0
55014;BME280;40916;51.632;5.552;2022-10-15T02:00:51;1003.130585521444;;;11.917479474292868;0
55014;BME280;40916;51.632;5.552;2022-10-15T02:01:51;1003.0715373399278;;;11.917479474292868;0
55014;BME280;40916;51.632;5.552;2022-10-15T02:02:51;1003.0814807263348;;;11.937667150407567;0
55014;BME280;40916;51.632;5.552;2022-10-15T02:03:51;1003.0528058154367;;;11.944395565679603;0
55014;BME280;40916;51.632;5.552;2022-10-15T02:04:51;1003.0491150897783;;;11.944395565679603;0
55014;BME280;40916;51.632;5.552;2022-10-15T02:05:52;1003.0368931141586;;;11.964578382945994;0
55014;BME280;40916;51.632;5.552;2022-10-15T02:06:52;1003.0332022270916;;;11.964578382945994;0
55014;BME280;40916;51.632;5.552;2022-10-15T02:07:53;1003.0405840013455;;;11.964578382945994;0
55014;BME280;40916;51.632;5.552;2022-10-15T02:08:55;1003.0541837492658;;;11.98475756000844;0
55014;BME280;40916;51.632;5.552;2022-10-15T02:09:53;1002.9860637053893;;;11.971305179600943;0
55014;BME280;40916;51.632;5.552;2022-10-15T02:10:52;1002.9323791782047;;;11.98475756000844;0
55014;BME280;40916;51.632;5.552;2022-10-15T02:11:54;1003.028000556482;;;12.011657472702584;0
55014;BME280;40916;51.632;5.552;2022-10-15T02:12:56;1002.9837053903958;;;12.011657472702584;0
55014;BME280;40916;51.632;5.552;2022-10-15T02:13:54;1003.0690612475846;;;12.045273283610474;0
55014;BME280;40916;51.632;5.552;2022-10-15T02:14:53;1003.0210712948092;;;12.045273283610474;0
55014;BME280;40916;51.632;5.552;2022-10-15T02:15:54;1002.9012927264972;;;12.03182816903831;0
55014;BME280;40916;51.632;5.552;2022-10-15T02:16:53;1002.8709346049766;;;12.025105006980983;0
55014;BME280;40916;51.632;5.552;2022-10-15T02:17:53;1002.9685648912479;;;12.038550927873402;0
55014;BME280;40916;51.632;5.552;2022-10-15T02:18:54;1002.9345155318539;;;12.03182816903831;0
55014;BME280;40916;51.632;5.552;2022-10-15T02:19:54;1002.8873523954004;;;12.038550927873402;0
55014;BME280;40916;51.632;5.552;2022-10-15T02:20:54;1002.8586439128745;;;12.045273283610474;0
55014;BME280;40916;51.632;5.552;2022-10-15T02:21:55;1002.8771015582081;;;12.045273283610474;0
55014;BME280;40916;51.632;5.552;2022-10-15T02:22:54;1002.9172973257639;;;12.07215867806078;0
55014;BME280;40916;51.632;5.552;2022-10-15T02:23:55;1002.893510472113;;;12.058716786287096;0
55014;BME280;40916;51.632;5.552;2022-10-15T02:24:54;1002.8254201588367;;;12.045273283610474;0
55014;BME280;40916;51.632;5.552;2022-10-15T02:25:53;1002.8713606476842;;;12.058716786287096;0
55014;BME280;40916;51.632;5.552;2022-10-15T02:26:55;1002.8611042423012;;;12.065437933474797;0
55014;BME280;40916;51.632;5.552;2022-10-15T02:27:53;1002.8492108275775;;;12.058716786287096;0
55014;BME280;40916;51.632;5.552;2022-10-15T02:28:54;1002.8529024639618;;;12.058716786287096;0
55014;BME280;40916;51.632;5.552;2022-10-15T02:29:53;1002.7569199569857;;;12.058716786287096;0
55014;BME280;40916;51.632;5.552;2022-10-15T02:30:53;1002.8307526474565;;;12.058716786287096;0
55014;BME280;40916;51.632;5.552;2022-10-15T02:31:54;1002.790144661755;;;12.058716786287096;0
55014;BME280;40916;51.632;5.552;2022-10-15T02:32:55;1002.8233693762485;;;12.058716786287096;0
55014;BME280;40916;51.632;5.552;2022-10-15T02:33:54;1002.7848133615507;;;12.045273283610474;0
55014;BME280;40916;51.632;5.552;2022-10-15T02:34:54;1002.7921964145223;;;12.045273283610474;0
55014;BME280;40916;51.632;5.552;2022-10-15T02:35:54;1002.7967087383912;;;12.05199523637367;0
55014;BME280;40916;51.632;5.552;2022-10-15T02:36:54;1002.7737387829937;;;12.045273283610474;0
55014;BME280;40916;51.632;5.552;2022-10-15T02:37:54;1002.7995794679741;;;12.045273283610474;0
55014;BME280;40916;51.632;5.552;2022-10-15T02:38:54;1002.7351788455609;;;12.03182816903831;0
55014;BME280;40916;51.632;5.552;2022-10-15T02:39:54;1002.7831672750858;;;12.03182816903831;0
55014;BME280;40916;51.632;5.552;2022-10-15T02:40:54;1002.7409103568996;;;12.01838144157718;0
55014;BME280;40916;51.632;5.552;2022-10-15T02:41:55;1002.7372190477856;;;12.01838144157718;0
55014;BME280;40916;51.632;5.552;2022-10-15T02:42:55;1002.7187625040167;;;12.01838144157718;0
55014;BME280;40916;51.632;5.552;2022-10-15T02:43:55;1002.6166135290453;;;11.998208324043556;0
55014;BME280;40916;51.632;5.552;2022-10-15T02:44:55;1002.6157824175204;;;11.991483144010257;0
55014;BME280;40916;51.632;5.552;2022-10-15T02:45:55;1002.6387603908745;;;11.998208324043556;0
55014;BME280;40916;51.632;5.552;2022-10-15T02:46:55;1002.6436432245775;;;11.978031571913537;0
55014;BME280;40916;51.632;5.552;2022-10-15T02:47:55;1002.6280431439325;;;11.971305179600943;0
55014;BME280;40916;51.632;5.552;2022-10-15T02:48:55;1002.56160646292;;;11.971305179600943;0
55014;BME280;40916;51.632;5.552;2022-10-15T02:49:55;1002.5911338719031;;;11.971305179600943;0
55014;BME280;40916;51.632;5.552;2022-10-15T02:50:55;1002.5911338719031;;;11.971305179600943;0
55014;BME280;40916;51.632;5.552;2022-10-15T02:51:56;1002.5993514459021;;;11.978031571913537;0
55014;BME280;40916;51.632;5.552;2022-10-15T02:52:56;1002.5567250041806;;;11.991483144010257;0
55014;BME280;40916;51.632;5.552;2022-10-15T02:53:56;1002.5981578141548;;;11.998208324043556;0
55014;BME280;40916;51.632;5.552;2022-10-15T02:54:56;1002.5788715305825;;;11.991483144010257;0
55014;BME280;40916;51.632;5.552;2022-10-15T02:55:56;1002.5436191117901;;;12.004933100232847;0
55014;BME280;40916;51.632;5.552;2022-10-15T02:56:56;1002.5317172653931;;;11.998208324043556;0
55014;BME280;40916;51.632;5.552;2022-10-15T02:57:57;1002.4882512024087;;;12.004933100232847;0
55014;BME280;40916;51.632;5.552;2022-10-15T02:58:56;1002.5735773891489;;;12.038550927873402;0
55014;BME280;40916;51.632;5.552;2022-10-15T02:59:56;1002.4538108610722;;;12.025105006980983;0
55014;BME280;40916;51.632;5.552;2022-10-15T03:00:56;1002.4767799583665;;;12.03182816903831;0
55014;BME280;40916;51.632;5.552;2022-10-15T03:01:57;1002.4939995257217;;;12.05199523637367;0
55014;BME280;40916;51.632;5.552;2022-10-15T03:02:57;1002.4320566893991;;;12.058716786287096;0
55014;BME280;40916;51.632;5.552;2022-10-15T03:03:57;1002.4558299648253;;;12.07215867806078;0
55014;BME280;40916;51.632;5.552;2022-10-15T03:04:57;1002.4086461287136;;;12.078879020168987;0
55014;BME280;40916;51.632;5.552;2022-10-15T03:05:57;1002.4115291968634;;;12.07215867806078;0
55014;BME280;40916;51.632;5.552;2022-10-15T03:06:57;1002.3598449894251;;;12.07215867806078;0
55014;BME280;40916;51.632;5.552;2022-10-15T03:07:58;1002.3298397232741;;;12.099037632865684;0
55014;BME280;40916;51.632;5.552;2022-10-15T03:08:57;1002.3778349918402;;;12.099037632865684;0
55014;BME280;40916;51.632;5.552;2022-10-15T03:09:57;1002.3356164571342;;;12.085598959923317;0
55014;BME280;40916;51.632;5.552;2022-10-15T03:10:58;1002.3519913831676;;;12.099037632865684;0
55014;BME280;40916;51.632;5.552;2022-10-15T03:11:58;1002.3216532783196;;;12.092318497447618;0
55014;BME280;40916;51.632;5.552;2022-10-15T03:13:00;1002.332728945189;;;12.092318497447618;0
55014;BME280;40916;51.632;5.552;2022-10-15T03:13:58;1002.3577674711837;;;12.085598959923317;0
55014;BME280;40916;51.632;5.552;2022-10-15T03:14:58;1002.2343262979001;;;12.07215867806078;0
55014;BME280;40916;51.632;5.552;2022-10-15T03:15:58;1002.3335316662896;;;12.099037632865684;0
55014;BME280;40916;51.632;5.552;2022-10-15T03:16:58;1002.2950062759363;;;12.085598959923317;0
55014;BME280;40916;51.632;5.552;2022-10-15T03:17:58;1002.2543961092662;;;12.085598959923317;0
55014;BME280;40916;51.632;5.552;2022-10-15T03:18:58;1002.1805594798137;;;12.085598959923317;0
55014;BME280;40916;51.632;5.552;2022-10-15T03:19:58;1002.1932379161148;;;12.099037632865684;0
55014;BME280;40916;51.632;5.552;2022-10-15T03:20:59;1002.3277482016827;;;12.112474697878046;0
55014;BME280;40916;51.632;5.552;2022-10-15T03:21:59;1002.2797515526762;;;12.112474697878046;0
55014;BME280;40916;51.632;5.552;2022-10-15T03:22:59;1002.253108880357;;;12.105756366301264;0
55014;BME280;40916;51.632;5.552;2022-10-15T03:23:59;1002.2678768587963;;;12.105756366301264;0
55014;BME280;40916;51.632;5.552;2022-10-15T03:24:59;1002.3633667435029;;;12.132627282691814;0
55014;BME280;40916;51.632;5.552;2022-10-15T03:25:59;1002.3514951720987;;;12.125910155949754;0
55014;BME280;40916;51.632;5.552;2022-10-15T03:26:59;1002.4142618972352;;;12.125910155949754;0
55014;BME280;40916;51.632;5.552;2022-10-15T03:27:59;1002.344110853776;;;12.125910155949754;0
55014;BME280;40916;51.632;5.552;2022-10-15T03:28:59;1002.3625716504833;;;12.125910155949754;0
55014;BME280;40916;51.632;5.552;2022-10-15T03:29:59;1002.37285127475;;;12.11919262771968;0
55014;BME280;40916;51.632;5.552;2022-10-15T03:30:59;1002.3707511708741;;;12.132627282691814;0
55014;BME280;40916;51.632;5.552;2022-10-15T03:32:00;1002.4815176390883;;;12.132627282691814;0
55014;BME280;40916;51.632;5.552;2022-10-15T03:33:00;1002.3454087771227;;;12.105756366301264;0
55014;BME280;40916;51.632;5.552;2022-10-15T03:34:00;1002.4733364937724;;;12.125910155949754;0
55014;BME280;40916;51.632;5.552;2022-10-15T03:35:00;1002.4031854138069;;;12.125910155949754;0
55014;BME280;40916;51.632;5.552;2022-10-15T03:36:00;1002.4010829173594;;;12.139344008069347;0
55014;BME280;40916;51.632;5.552;2022-10-15T03:37:00;1002.443799191661;;;12.125910155949754;0
55014;BME280;40916;51.632;5.552;2022-10-15T03:38:00;1002.4659521675242;;;12.125910155949754;0
55014;BME280;40916;51.632;5.552;2022-10-15T03:39:00;1002.3678525040357;;;12.139344008069347;0
55014;BME280;40916;51.632;5.552;2022-10-15T03:40:01;1002.3900061118374;;;12.139344008069347;0
55014;BME280;40916;51.632;5.552;2022-10-15T03:41:00;1002.4121597239623;;;12.139344008069347;0
55014;BME280;40916;51.632;5.552;2022-10-15T03:42:00;1002.3907983825819;;;12.1460603322058;0
55014;BME280;40916;51.632;5.552;2022-10-15T03:43:01;1002.4150577451901;;;12.132627282691814;0
55014;BME280;40916;51.632;5.552;2022-10-15T03:44:01;1002.3715447717025;;;12.139344008069347;0
55014;BME280;40916;51.632;5.552;2022-10-15T03:45:01;1002.2866226457522;;;12.139344008069347;0
55014;BME280;40916;51.632;5.552;2022-10-15T03:46:01;1002.3362034251127;;;12.152776255224556;0
55014;BME280;40916;51.632;5.552;2022-10-15T03:47:01;1002.3354135624153;;;12.1460603322058;0
55014;BME280;40916;51.632;5.552;2022-10-15T03:48:01;1002.2992796875312;;;12.152776255224556;0
55014;BME280;40916;51.632;5.552;2022-10-15T03:49:01;1002.2357209542103;;;12.1460603322058;0
55014;BME280;40916;51.632;5.552;2022-10-15T03:50:01;1002.2270039427973;;;12.166206898402297;0
55014;BME280;40916;51.632;5.552;2022-10-15T03:51:01;1002.2085415514172;;;12.166206898402297;0
55014;BME280;40916;51.632;5.552;2022-10-15T03:52:01;1002.2544173524616;;;12.179635938588682;0
55014;BME280;40916;51.632;5.552;2022-10-15T03:53:02;1002.1694878780385;;;12.179635938588682;0
55014;BME280;40916;51.632;5.552;2022-10-15T03:54:02;1002.2485916298061;;;12.193063376769015;0
55014;BME280;40916;51.632;5.552;2022-10-15T03:55:02;1002.1621027093523;;;12.179635938588682;0
55014;BME280;40916;51.632;5.552;2022-10-15T03:56:02;1002.190284996983;;;12.199776495414596;0
55014;BME280;40916;51.632;5.552;2022-10-15T03:57:02;1002.1282822754554;;;12.206489213927789;0
55014;BME280;40916;51.632;5.552;2022-10-15T03:58:02;1002.2406126455544;;;12.21991345104869;0
55014;BME280;40916;51.632;5.552;2022-10-15T03:59:02;1002.2184551878387;;;12.21991345104869;0
55014;BME280;40916;51.632;5.552;2022-10-15T04:00:02;1002.1424411875618;;;12.233336089114605;0
55014;BME280;40916;51.632;5.552;2022-10-15T04:01:06;1002.1941434022908;;;12.233336089114605;0
55014;BME280;40916;51.632;5.552;2022-10-15T04:02:02;1002.1469003980815;;;12.240046808808874;0
55014;BME280;40916;51.632;5.552;2022-10-15T04:03:02;1002.2378269803907;;;12.260176572008984;0
55014;BME280;40916;51.632;5.552;2022-10-15T04:04:03;1002.1861217303552;;;12.260176572008984;0
55014;BME280;40916;51.632;5.552;2022-10-15T04:05:03;1002.1507074749004;;;12.273594418799188;0
55014;BME280;40916;51.632;5.552;2022-10-15T04:06:03;1002.1743798330766;;;12.287010670457896;0
55014;BME280;40916;51.632;5.552;2022-10-15T04:07:03;1002.1426438153372;;;12.300425327963971;0
55014;BME280;40916;51.632;5.552;2022-10-15T04:08:03;1002.0879898385186;;;12.307132059215451;0
55014;BME280;40916;51.632;5.552;2022-10-15T04:09:03;1002.1360067126984;;;12.307132059215451;0
55014;BME280;40916;51.632;5.552;2022-10-15T04:10:03;1002.1345534125817;;;12.3272498644297;0
55014;BME280;40916;51.632;5.552;2022-10-15T04:11:03;1002.1308596447541;;;12.3272498644297;0
55014;BME280;40916;51.632;5.552;2022-10-15T04:12:03;1002.1574599347845;;;12.333955003727993;0
55014;BME280;40916;51.632;5.552;2022-10-15T04:13:03;1002.1352970022891;;;12.333955003727993;0
55014;BME280;40916;51.632;5.552;2022-10-15T04:14:03;1002.149328485094;;;12.3272498644297;0
55014;BME280;40916;51.632;5.552;2022-10-15T04:15:04;1002.1367551252042;;;12.313838392295484;0